Monday, October 16, 2017, 8:31 PM EDT
Back to Local

KOKV, Winchester Regional

Location: Winchester, VA, United States Lat: 39.15
Local Time: 8:31 PM EDT ( 0:31 GMT) Lon: -78.15
Time Zone: US/Eastern Elev: 728 ft

Show me the last for .
Show Decoded

2017-10-16 20:15 METAR KOKV 170015Z AUTO 33003KT 10SM CLR 08/02 A3022 RMK AO2 =
2017-10-16 19:55 METAR KOKV 162355Z AUTO 00000KT 10SM CLR 08/02 A3021 RMK AO2 =
2017-10-16 19:35 METAR KOKV 162335Z AUTO 32003KT 10SM CLR 09/02 A3020 RMK AO2 =
2017-10-16 19:15 METAR KOKV 162315Z AUTO 32003KT 10SM CLR 11/01 A3019 RMK AO2 =
2017-10-16 18:55 METAR KOKV 162255Z AUTO 33003KT 10SM CLR 12/00 A3019 RMK AO2 =
2017-10-16 18:35 METAR KOKV 162235Z AUTO 33003KT 10SM CLR 12/00 A3017 RMK AO2 =
2017-10-16 18:15 METAR KOKV 162215Z AUTO 32010G14KT 10SM CLR 13/00 A3016 RMK AO2 =
2017-10-16 17:55 METAR KOKV 162155Z AUTO 32008KT 10SM CLR 14/00 A3016 RMK AO2 =
2017-10-16 17:35 METAR KOKV 162135Z AUTO 32012G21KT 10SM CLR 14/00 A3015 RMK AO2 =
2017-10-16 17:15 METAR KOKV 162115Z AUTO 32013KT 10SM CLR 15/01 A3015 RMK AO2 =
2017-10-16 16:55 METAR KOKV 162055Z AUTO 32015G22KT 10SM CLR 15/00 A3015 RMK AO2 =
2017-10-16 16:35 METAR KOKV 162035Z AUTO 31015G19KT 10SM CLR 15/01 A3015 RMK AO2 =
2017-10-16 16:15 METAR KOKV 162015Z AUTO 31016G22KT 10SM CLR 16/01 A3015 RMK AO2 =
2017-10-16 15:55 METAR KOKV 161955Z AUTO 30016G21KT 10SM CLR 16/01 A3014 RMK AO2 =
2017-10-16 15:35 METAR KOKV 161935Z AUTO 31015G22KT 10SM CLR 15/01 A3013 RMK AO2 =
2017-10-16 15:15 METAR KOKV 161915Z AUTO 30018G22KT 10SM CLR 16/01 A3013 RMK AO2 =
2017-10-16 14:55 METAR KOKV 161855Z AUTO 31015G22KT 10SM CLR 16/01 A3013 RMK AO2 =
2017-10-16 14:35 METAR KOKV 161835Z AUTO 31016G24KT 10SM CLR 16/02 A3013 RMK AO2 =
2017-10-16 14:15 METAR KOKV 161815Z AUTO 31019G23KT 10SM CLR 16/02 A3012 RMK AO2 =
2017-10-16 13:55 METAR KOKV 161755Z AUTO 32015G21KT 10SM SCT049 16/02 A3012 RMK AO2 =
2017-10-16 13:35 METAR KOKV 161735Z AUTO 31016G23KT 10SM SCT049 15/03 A3013 RMK AO2 =
2017-10-16 13:15 METAR KOKV 161715Z AUTO 32010G18KT 10SM SCT049 15/03 A3014 RMK AO2 =
2017-10-16 12:55 METAR KOKV 161655Z AUTO 30012G21KT 10SM CLR 14/04 A3015 RMK AO2 =
2017-10-16 12:35 METAR KOKV 161635Z AUTO 31015G22KT 10SM CLR 14/04 A3015 RMK AO2 =
2017-10-16 12:15 METAR KOKV 161615Z AUTO 31015G22KT 10SM CLR 13/04 A3015 RMK AO2 =
2017-10-16 11:55 METAR KOKV 161555Z AUTO 30019G23KT 10SM CLR 13/04 A3014 RMK AO2 =
2017-10-16 11:35 METAR KOKV 161535Z AUTO 31020G29KT 10SM CLR 13/04 A3014 RMK AO2 =
2017-10-16 11:15 METAR KOKV 161515Z AUTO 30020G27KT 10SM CLR 13/04 A3013 RMK AO2 =
2017-10-16 10:55 METAR KOKV 161455Z AUTO 32016G25KT 10SM CLR 13/05 A3012 RMK AO2 =
2017-10-16 10:35 METAR KOKV 161435Z AUTO 33011G18KT 300V360 10SM CLR 12/05 A3013 RMK AO2 =
2017-10-16 10:15 METAR KOKV 161415Z AUTO 32007KT 10SM SCT055 12/06 A3012 RMK AO2 =
2017-10-16 09:55 METAR KOKV 161355Z AUTO 32010KT 10SM OVC055 12/06 A3013 RMK AO2 =
2017-10-16 09:35 METAR KOKV 161335Z AUTO 33009G18KT 10SM OVC055 12/06 A3012 RMK AO2 =
2017-10-16 09:15 METAR KOKV 161315Z AUTO 32009G17KT 10SM OVC055 12/06 A3012 RMK AO2 =
2017-10-16 08:55 METAR KOKV 161255Z AUTO 32012G17KT 10SM OVC049 12/06 A3010 RMK AO2 =
2017-10-16 08:35 METAR KOKV 161235Z AUTO 33009G16KT 10SM SCT038 OVC049 12/06 A3009 RMK AO2 =
2017-10-16 08:15 METAR KOKV 161215Z AUTO 32013G19KT 10SM SCT032 OVC039 13/07 A3007 RMK AO2 =
2017-10-16 07:55 METAR KOKV 161155Z AUTO 31008KT 10SM BKN046 13/08 A3007 RMK AO2 =
2017-10-16 07:35 METAR KOKV 161135Z AUTO 31010KT 10SM CLR 13/08 A3005 RMK AO2 =
2017-10-16 07:15 METAR KOKV 161115Z AUTO 31010KT 10SM SCT050 13/08 A3004 RMK AO2 =
2017-10-16 06:55 METAR KOKV 161055Z AUTO 32008KT 10SM SCT050 13/08 A3003 RMK AO2 =
2017-10-16 06:35 METAR KOKV 161035Z AUTO 30008KT 10SM CLR 12/08 A3005 RMK AO2 =
2017-10-16 06:15 METAR KOKV 161015Z AUTO 30009G14KT 10SM CLR 13/08 A3004 RMK AO2 =
2017-10-16 05:55 METAR KOKV 160955Z AUTO 31012G15KT 10SM CLR 13/08 A3003 RMK AO2 =
2017-10-16 05:35 METAR KOKV 160935Z AUTO 31009KT 10SM CLR 13/09 A3001 RMK AO2 =
2017-10-16 05:15 METAR KOKV 160915Z AUTO 30010G15KT 10SM SCT110 14/09 A3000 RMK AO2 =
2017-10-16 04:55 METAR KOKV 160855Z AUTO 30007KT 10SM SCT095 SCT120 14/09 A3000 RMK AO2 =
2017-10-16 04:35 METAR KOKV 160835Z AUTO 34006G14KT 10SM SCT090 SCT120 15/09 A2997 RMK AO2 =
2017-10-16 04:15 METAR KOKV 160815Z AUTO 31010G15KT 10SM CLR 15/10 A3000 RMK AO2 =
2017-10-16 03:55 METAR KOKV 160755Z AUTO 30011G15KT 10SM BKN120 15/10 A3000 RMK AO2 =
2017-10-16 03:35 METAR KOKV 160735Z AUTO 31012G16KT 10SM OVC120 15/10 A3000 RMK AO2 =
2017-10-16 03:15 METAR KOKV 160715Z AUTO 30011KT 10SM OVC110 15/10 A2999 RMK AO2 =
2017-10-16 02:55 METAR KOKV 160655Z AUTO 30010G16KT 10SM OVC110 15/11 A2998 RMK AO2 =
2017-10-16 02:35 METAR KOKV 160635Z AUTO 29009KT 10SM -RA SCT085 BKN120 15/12 A2998 RMK AO2 =
2017-10-16 02:15 METAR KOKV 160615Z AUTO 32010KT 10SM DZ SCT044 BKN085 OVC120 16/13 A2998 RMK AO2
                 =
2017-10-16 01:55 METAR KOKV 160555Z AUTO 32005KT 10SM DZ SCT040 BKN048 OVC120 16/15 A2998 RMK AO2
                 P0007 =
2017-10-16 01:35 METAR KOKV 160535Z AUTO 00000KT 7SM -RA SCT029 BKN040 OVC048 16/15 A2997 RMK AO2
                 P0006 =
2017-10-16 01:15 METAR KOKV 160515Z AUTO 31008KT 7SM RA SCT018 BKN027 OVC040 17/15 A2997 RMK AO2
                 P0003 =
2017-10-16 00:55 METAR KOKV 160455Z AUTO 32005KT 10SM -RA SCT017 SCT025 OVC040 17/15 A2996 RMK
                 AO2 =
2017-10-16 00:35 METAR KOKV 160435Z AUTO 31009KT 10SM SCT010 BKN032 OVC043 17/16 A2995 RMK AO2 =
2017-10-16 00:15 METAR KOKV 160415Z AUTO 28010KT 7SM DZ SCT010 BKN020 OVC060 18/17 A2995 RMK AO2
                 =
2017-10-15 23:55 METAR KOKV 160355Z AUTO 31006KT 10SM SCT027 SCT032 OVC060 18/17 A2994 RMK AO2 =
2017-10-15 23:30 METAR KOKV 160330Z AUTO 29007KT 7SM RA BKN050 OVC060 20/16 A2992 RMK AO2 =
2017-10-15 23:15 METAR KOKV 160315Z AUTO 29012KT 10SM OVC050 21/16 A2992 RMK AO2 =
2017-10-15 22:55 METAR KOKV 160255Z AUTO 30017G22KT 10SM OVC050 22/15 A2991 RMK AO2 =
2017-10-15 22:35 METAR KOKV 160235Z AUTO 26006KT 10SM OVC060 22/15 A2988 RMK AO2 =
2017-10-15 22:15 METAR KOKV 160215Z AUTO 27006KT 10SM BKN070 OVC090 22/15 A2986 RMK AO2 =
2017-10-15 21:55 METAR KOKV 160155Z AUTO 20004KT 10SM SCT070 OVC100 21/16 A2985 RMK AO2 =
2017-10-15 21:35 METAR KOKV 160135Z AUTO 19004KT 10SM OVC100 21/16 A2985 RMK AO2 =
2017-10-15 21:15 METAR KOKV 160115Z AUTO 16004KT 10SM BKN100 20/17 A2985 RMK AO2 =
2017-10-15 21:00 METAR KOKV 160100Z AUTO 00000KT 10SM SCT080 OVC090 21/17 A2985 RMK AO2 =
2017-10-15 20:35 METAR KOKV 160035Z AUTO 19003KT 10SM SCT080 OVC090 21/17 A2985 RMK AO2 =

Support USWX by starting your Amazon purchase here.